Time;durP1;ratioP1;P1;durP2;ratioP2;P2;SDS_P1;SDS_P2;PMS_P1;PMS_P2;Temp;Humidity;BMP_temperature;BMP_pressure;BME280_temperature;BME280_humidity;BME280_pressure;Samples;Min_cycle;Max_cycle;Signal;HPM_P1;HPM_P2
2022/04/20 00:02:39;;;;;;;2.35;0.90;;;;;;;7.82;75.20;101574.47;6245248;28;20501;-72
2022/04/20 00:05:41;;;;;;;6.72;1.45;;;;;;;7.77;75.71;101576.38;6245856;28;20053;-72
2022/04/20 00:08:43;;;;;;;3.08;0.80;;;;;;;7.73;76.38;101574.75;6247794;28;20049;-72
2022/04/20 00:11:46;;;;;;;0.95;0.85;;;;;;;7.68;75.74;101579.25;6249488;28;20052;-72
2022/04/20 00:14:47;;;;;;;1.85;0.98;;;;;;;7.62;75.03;101585.47;6250401;28;20497;-72
2022/04/20 00:17:48;;;;;;;3.22;0.82;;;;;;;7.61;76.54;101578.53;6250176;28;20049;-72
2022/04/20 00:20:51;;;;;;;1.48;0.93;;;;;;;7.54;77.74;101578.75;6249288;28;20408;-71
2022/04/20 00:23:54;;;;;;;2.22;0.90;;;;;;;7.47;78.29;101582.44;6250138;28;20045;-72
2022/04/20 00:26:55;;;;;;;2.05;1.33;;;;;;;7.43;78.09;101580.81;6250204;28;20080;-72
2022/04/20 00:29:56;;;;;;;1.98;1.10;;;;;;;7.38;79.68;101576.56;6249369;28;20421;-72
2022/04/20 00:32:59;;;;;;;1.60;1.08;;;;;;;7.31;78.14;101575.00;6249332;28;20049;-72
2022/04/20 00:36:02;;;;;;;1.17;1.00;;;;;;;7.29;78.80;101576.78;6249643;28;20085;-72
2022/04/20 00:39:04;;;;;;;0.90;0.88;;;;;;;7.27;78.64;101578.59;6249953;28;20057;-72
2022/04/20 00:42:06;;;;;;;1.75;1.00;;;;;;;7.24;77.82;101576.06;6248999;28;20471;-72
2022/04/20 00:45:08;;;;;;;4.78;0.88;;;;;;;7.19;77.62;101582.31;6249584;28;20053;-71
2022/04/20 00:48:10;;;;;;;2.05;1.00;;;;;;;7.11;78.71;101583.34;6249565;28;20052;-72
2022/04/20 00:51:13;;;;;;;0.95;0.70;;;;;;;7.10;79.89;101580.78;6248639;28;20052;-72
2022/04/20 00:54:14;;;;;;;1.80;0.93;;;;;;;7.09;79.63;101586.94;6249534;28;20053;-72
2022/04/20 00:57:16;;;;;;;4.13;1.27;;;;;;;7.07;80.21;101583.47;6249457;28;20045;-72
2022/04/20 01:00:17;;;;;;;0.82;0.57;;;;;;;7.04;81.09;101586.16;6248424;28;20049;-70
2022/04/20 01:03:19;;;;;;;1.45;1.08;;;;;;;7.02;80.82;101578.38;6249060;28;20421;-72
2022/04/20 01:06:22;;;;;;;1.90;0.85;;;;;;;7.00;79.90;101577.56;6249272;28;20412;-72
2022/04/20 01:09:23;;;;;;;1.83;0.90;;;;;;;6.89;79.56;101579.56;6249170;28;20132;-72
2022/04/20 01:12:24;;;;;;;1.25;0.70;;;;;;;6.87;81.15;101578.75;6247644;28;20057;-72
2022/04/20 01:15:26;;;;;;;1.52;0.82;;;;;;;6.86;80.69;101577.91;6248681;28;20076;-72
2022/04/20 01:18:28;;;;;;;2.30;1.40;;;;;;;6.84;81.38;101581.44;6248457;28;20493;-72
2022/04/20 01:21:31;;;;;;;2.42;0.70;;;;;;;6.80;80.53;101587.63;6247982;28;20049;-72
2022/04/20 01:24:33;;;;;;;1.85;1.33;;;;;;;6.71;80.63;101583.47;6248571;28;20057;-71
2022/04/20 01:27:35;;;;;;;6.63;1.00;;;;;;;6.62;79.46;101583.69;6248723;28;20060;-72
2022/04/20 01:30:36;;;;;;;1.98;1.10;;;;;;;6.59;83.95;101583.78;6247683;28;20286;-71
2022/04/20 01:33:38;;;;;;;2.80;1.00;;;;;;;6.60;82.90;101580.28;6248543;28;20177;-72
2022/04/20 01:36:41;;;;;;;2.17;1.40;;;;;;;6.58;83.65;101572.47;6248320;28;20528;-72
2022/04/20 01:39:42;;;;;;;1.20;0.90;;;;;;;6.59;84.50;101570.72;6247867;28;20049;-72
2022/04/20 01:42:43;;;;;;;2.03;1.15;;;;;;;6.61;83.47;101580.22;6247744;28;20046;-71
2022/04/20 01:45:45;;;;;;;1.27;0.80;;;;;;;6.60;83.42;101575.91;6248105;28;20046;-71
2022/04/20 01:48:47;;;;;;;1.67;1.13;;;;;;;6.57;83.68;101575.13;6248312;28;20061;-72
2022/04/20 01:51:51;;;;;;;2.00;1.33;;;;;;;6.46;83.05;101571.91;6247156;28;20041;-72
2022/04/20 01:54:52;;;;;;;1.65;1.00;;;;;;;6.44;83.35;101566.69;6248065;28;20523;-72
2022/04/20 01:57:54;;;;;;;3.63;1.20;;;;;;;6.43;83.68;101571.97;6247867;28;20056;-72
2022/04/20 02:00:55;;;;;;;0.95;0.88;;;;;;;6.43;84.41;101562.38;6247366;28;20045;-71
2022/04/20 02:03:55;;;;;;;1.10;0.90;;;;;;;6.38;83.57;101568.59;6247741;28;20045;-72
2022/04/20 02:06:58;;;;;;;2.65;1.17;;;;;;;6.26;82.45;101567.97;6248136;28;20421;-72
2022/04/20 02:10:00;;;;;;;5.75;1.10;;;;;;;6.19;82.46;101569.03;6247280;28;20050;-72
2022/04/20 02:13:01;;;;;;;1.92;1.02;;;;;;;6.23;83.54;101573.28;6247025;28;20054;-72
2022/04/20 02:16:02;;;;;;;1.35;1.15;;;;;;;6.24;83.51;101568.91;6247487;28;20496;-72
2022/04/20 02:19:04;;;;;;;0.95;0.70;;;;;;;6.19;83.55;101569.03;6247400;28;20050;-72
2022/04/20 02:22:06;;;;;;;2.13;1.10;;;;;;;6.13;83.40;101574.34;6246674;28;20049;-72
2022/04/20 02:25:08;;;;;;;3.53;1.30;;;;;;;6.04;83.01;101570.22;6247453;28;20049;-72
2022/04/20 02:28:09;;;;;;;2.38;1.20;;;;;;;5.97;82.26;101570.38;6247206;28;20551;-72
2022/04/20 02:31:10;;;;;;;2.55;1.65;;;;;;;5.87;82.54;101577.50;6245598;28;20060;-72
2022/04/20 02:34:12;;;;;;;2.58;1.17;;;;;;;5.78;82.64;101575.94;6247481;28;20060;-72
2022/04/20 02:37:15;;;;;;;2.08;1.20;;;;;;;5.75;84.20;101586.41;6246937;28;20049;-72
2022/04/20 02:40:17;;;;;;;1.95;1.35;;;;;;;5.74;84.61;101582.09;6246238;28;20052;-72
2022/04/20 02:43:18;;;;;;;2.67;1.50;;;;;;;5.73;86.44;101575.19;6247083;28;20057;-72
2022/04/20 02:46:22;;;;;;;2.95;1.50;;;;;;;5.71;86.55;101582.16;6246882;28;20476;-72
2022/04/20 02:49:24;;;;;;;4.13;1.60;;;;;;;5.70;86.68;101577.84;6246937;28;20524;-72
2022/04/20 02:52:26;;;;;;;2.85;0.80;;;;;;;5.70;87.63;101582.19;6245893;28;20052;-71
2022/04/20 02:55:28;;;;;;;1.92;1.02;;;;;;;5.64;87.33;101582.31;6246876;28;20080;-72
2022/04/20 02:58:30;;;;;;;3.20;1.42;;;;;;;5.62;86.22;101578.88;6246612;28;20049;-72
2022/04/20 03:01:31;;;;;;;1.92;1.08;;;;;;;5.59;87.17;101585.03;6246098;28;20046;-72
2022/04/20 03:04:33;;;;;;;2.90;1.10;;;;;;;5.53;87.78;101582.50;6246434;28;20049;-72
2022/04/20 03:07:35;;;;;;;2.85;1.00;;;;;;;5.47;88.69;101580.03;6246868;28;20049;-72
2022/04/20 03:10:37;;;;;;;2.45;1.25;;;;;;;5.42;89.22;101582.72;6245685;28;20355;-72
2022/04/20 03:13:38;;;;;;;3.72;1.58;;;;;;;5.42;89.51;101579.25;6246211;28;20054;-72
2022/04/20 03:16:39;;;;;;;1.35;0.90;;;;;;;5.40;89.52;101584.47;6246275;28;20061;-72
2022/04/20 03:19:41;;;;;;;2.08;1.40;;;;;;;5.36;90.67;101585.44;6246036;28;20049;-72
2022/04/20 03:22:43;;;;;;;1.55;1.00;;;;;;;5.34;89.97;101588.06;6245744;28;20041;-72
2022/04/20 03:25:45;;;;;;;2.40;1.58;;;;;;;5.35;89.89;101591.53;6246501;28;20049;-72
2022/04/20 03:28:46;;;;;;;1.70;1.08;;;;;;;5.30;90.23;101593.34;6246372;28;20052;-71
2022/04/20 03:31:48;;;;;;;2.35;1.17;;;;;;;5.28;91.48;101587.31;6245389;28;20068;-72
2022/04/20 03:34:49;;;;;;;3.35;1.58;;;;;;;5.25;90.61;101583.03;6246597;28;20061;-72
2022/04/20 03:37:52;;;;;;;2.70;1.00;;;;;;;5.23;89.91;101595.22;6246090;28;20110;-71
2022/04/20 03:40:53;;;;;;;1.23;0.85;;;;;;;5.24;90.92;101588.28;6245659;28;20057;-72
2022/04/20 03:43:55;;;;;;;2.22;1.23;;;;;;;5.24;91.15;101576.09;6249440;28;20497;-72
2022/04/20 03:46:56;;;;;;;1.60;1.00;;;;;;;5.23;91.59;101595.22;6250889;28;20049;-72
2022/04/20 03:49:58;;;;;;;2.92;1.08;;;;;;;5.22;91.34;101592.63;6250703;28;20045;-72
2022/04/20 03:53:00;;;;;;;2.70;1.33;;;;;;;5.19;91.59;101598.78;6250298;28;20048;-71
2022/04/20 03:56:02;;;;;;;1.88;1.20;;;;;;;5.14;90.76;101595.38;6250822;28;20045;-72
2022/04/20 03:59:03;;;;;;;1.65;1.10;;;;;;;5.04;89.28;101596.41;6250517;28;20120;-72
2022/04/20 04:02:06;;;;;;;3.03;1.23;;;;;;;5.00;91.09;101593.00;6249987;28;20048;-71
2022/04/20 04:05:08;;;;;;;4.00;1.40;;;;;;;4.97;90.82;101587.00;6250489;28;20048;-71
2022/04/20 04:08:11;;;;;;;2.67;1.45;;;;;;;5.00;92.19;101592.16;6250653;28;20053;-72
2022/04/20 04:11:12;;;;;;;1.90;1.27;;;;;;;5.05;93.18;101587.72;6249525;28;20046;-72
2022/04/20 04:14:13;;;;;;;2.25;0.90;;;;;;;5.03;93.89;101592.94;6250554;28;20053;-71
2022/04/20 04:17:14;;;;;;;1.73;1.23;;;;;;;4.97;92.70;101592.19;6250272;28;20049;-72
2022/04/20 04:20:16;;;;;;;2.55;1.13;;;;;;;4.94;96.39;101589.63;6250119;28;20054;-72
2022/04/20 04:23:19;;;;;;;3.05;1.27;;;;;;;4.97;97.19;101595.66;6250197;28;20041;-72
2022/04/20 04:26:20;;;;;;;2.50;1.40;;;;;;;4.96;97.00;101593.09;6249940;28;20062;-72
2022/04/20 04:29:21;;;;;;;1.65;1.23;;;;;;;4.92;96.88;101594.03;6250072;28;20053;-72
2022/04/20 04:32:23;;;;;;;3.00;1.15;;;;;;;4.89;97.23;101592.31;6249036;28;20041;-71
2022/04/20 04:35:24;;;;;;;3.05;1.45;;;;;;;4.89;98.42;101594.94;6249976;28;20056;-71
2022/04/20 04:38:27;;;;;;;3.05;1.83;;;;;;;4.85;99.30;101588.03;6249772;28;20053;-71
2022/04/20 04:41:28;;;;;;;3.72;1.98;;;;;;;4.81;99.29;101594.19;6249089;28;20045;-72
2022/04/20 04:44:32;;;;;;;7.28;2.90;;;;;;;4.71;98.44;101593.47;6249560;28;20049;-72
2022/04/20 04:50:52;;;;;;;8.80;2.78;;;;;;;4.75;99.14;101599.50;6248664;28;20456;-71
2022/04/20 04:53:54;;;;;;;7.78;3.25;;;;;;;4.75;100.00;101600.34;6248893;28;20049;-74
2022/04/20 04:56:56;;;;;;;13.63;3.45;;;;;;;4.80;100.00;101605.50;6249406;28;20053;-73
2022/04/20 04:59:58;;;;;;;12.60;4.68;;;;;;;4.76;100.00;101604.66;6249129;28;20057;-72
2022/04/20 05:02:59;;;;;;;7.95;2.83;;;;;;;4.76;100.00;101606.41;6248160;28;20053;-72
2022/04/20 05:06:01;;;;;;;4.18;2.25;;;;;;;4.78;100.00;101602.91;6248947;28;20141;-69
2022/04/20 05:09:03;;;;;;;8.73;3.60;;;;;;;4.76;100.00;101599.47;6249135;28;20449;-69
2022/04/20 05:12:06;;;;;;;6.60;2.03;;;;;;;4.73;100.00;101598.66;6247671;28;20053;-72
2022/04/20 05:15:08;;;;;;;4.47;1.40;;;;;;;4.68;100.00;101609.16;6248746;28;20126;-72
2022/04/20 05:18:09;;;;;;;10.05;3.00;;;;;;;4.75;100.00;101607.31;6248611;28;20049;-71
2022/04/20 05:21:11;;;;;;;14.60;4.72;;;;;;;4.79;100.00;101615.03;6248085;28;20064;-72
2022/04/20 05:24:14;;;;;;;14.88;5.07;;;;;;;4.86;100.00;101620.16;6248676;28;20493;-71
2022/04/20 05:27:15;;;;;;;18.20;5.25;;;;;;;4.88;100.00;101619.25;6248567;28;20050;-72
2022/04/20 05:30:17;;;;;;;11.38;3.63;;;;;;;4.89;100.00;101617.50;6247980;28;20057;-71
2022/04/20 05:33:18;;;;;;;17.05;3.80;;;;;;;4.96;100.00;101622.59;6248561;28;20045;-72
2022/04/20 05:36:19;;;;;;;7.65;2.92;;;;;;;5.01;100.00;101615.56;6248533;28;20416;-72
2022/04/20 05:42:42;;;;;;;4.88;2.65;;;;;;;5.16;100.00;101632.69;6247881;28;20057;-72
2022/04/20 05:45:43;;;;;;;15.32;4.88;;;;;;;5.18;100.00;101637.84;6248273;28;20041;-72
2022/04/20 05:48:44;;;;;;;7.60;3.10;;;;;;;5.26;100.00;101636.84;6248025;28;20524;-71
2022/04/20 05:51:46;;;;;;;6.00;3.40;;;;;;;5.33;100.00;101643.69;6246969;28;20049;-72
2022/04/20 05:54:48;;;;;;;6.95;2.50;;;;;;;5.31;100.00;101647.19;6247824;28;20420;-72
2022/04/20 05:57:49;;;;;;;5.78;1.90;;;;;;;5.32;100.00;101644.59;6247689;28;20057;-72
2022/04/20 06:00:51;;;;;;;3.50;1.70;;;;;;;5.39;100.00;101647.06;6247161;28;20064;-72
2022/04/20 06:03:52;;;;;;;4.07;2.20;;;;;;;5.38;100.00;101650.56;6247618;28;20056;-71
2022/04/20 06:06:53;;;;;;;2.92;1.83;;;;;;;5.34;100.00;101652.38;6246753;28;20064;-72
2022/04/20 06:09:56;;;;;;;4.75;2.20;;;;;;;5.30;99.61;101654.16;6247196;28;20136;-71
2022/04/20 06:12:58;;;;;;;5.85;2.28;;;;;;;5.33;100.00;101655.88;6246966;28;20628;-72
2022/04/20 06:15:59;;;;;;;2.72;1.58;;;;;;;5.32;100.00;101647.19;6246979;28;20057;-71
2022/04/20 06:19:00;;;;;;;4.30;1.98;;;;;;;5.39;100.00;101649.69;6246782;28;20049;-71
2022/04/20 06:22:02;;;;;;;4.57;1.70;;;;;;;5.44;100.00;101653.91;6246209;28;20394;-72
2022/04/20 06:25:05;;;;;;;2.47;1.77;;;;;;;5.52;100.00;101657.25;6246757;28;20049;-72
2022/04/20 06:28:07;;;;;;;2.35;1.50;;;;;;;5.61;100.00;101656.22;6246847;28;20052;-72
2022/04/20 06:31:08;;;;;;;2.80;1.67;;;;;;;5.73;100.00;101652.56;6246038;28;20053;-72
2022/04/20 06:34:10;;;;;;;3.15;1.73;;;;;;;5.81;100.00;101651.53;6246612;28;20053;-72
2022/04/20 06:37:14;;;;;;;2.20;1.60;;;;;;;5.92;100.00;101653.94;6245636;28;20555;-71
2022/04/20 06:40:17;;;;;;;1.73;1.27;;;;;;;5.99;98.70;101647.69;6245617;28;20049;-72
2022/04/20 06:43:18;;;;;;;4.93;2.00;;;;;;;5.99;97.05;101646.84;6246137;28;20044;-72
2022/04/20 06:46:20;;;;;;;3.28;1.70;;;;;;;5.98;98.13;101648.59;6246824;28;20501;-72
2022/04/20 06:49:21;;;;;;;3.08;1.63;;;;;;;6.01;97.15;101643.31;6246801;28;20057;-71
2022/04/20 06:59:01;;;;;;;6.28;2.35;;;;;;;6.22;96.67;101644.66;6243643;28;20049;-72
2022/04/20 07:02:03;;;;;;;3.60;1.77;;;;;;;6.29;96.82;101646.22;6243716;28;20068;-72
2022/04/20 07:05:06;;;;;;;4.15;2.20;;;;;;;6.31;95.73;101641.84;6244808;28;20062;-72
2022/04/20 07:08:07;;;;;;;4.60;2.20;;;;;;;6.38;94.45;101646.94;6242483;28;20045;-72
2022/04/20 07:11:12;;;;;;;5.65;2.50;;;;;;;6.38;93.31;101645.16;6243453;28;20049;-71
2022/04/20 07:14:14;;;;;;;10.30;1.95;;;;;;;6.46;93.80;101643.25;6244401;28;20037;-71
2022/04/20 07:17:15;;;;;;;3.28;2.05;;;;;;;6.51;93.25;101636.19;6246286;28;20057;-72
2022/04/20 07:20:18;;;;;;;4.85;2.20;;;;;;;6.62;93.39;101638.53;6250668;28;20041;-71
2022/04/20 07:23:19;;;;;;;3.38;1.70;;;;;;;6.75;92.47;101633.91;6250493;28;20045;-72
2022/04/20 07:26:22;;;;;;;1.65;1.30;;;;;;;6.88;91.20;101624.88;6248797;28;20049;-71
2022/04/20 07:29:23;;;;;;;3.58;1.73;;;;;;;7.02;89.76;101627.16;6250605;28;20046;-71
2022/04/20 07:32:25;;;;;;;3.78;1.65;;;;;;;7.09;88.76;101626.13;6249729;28;20045;-72
2022/04/20 07:35:26;;;;;;;3.53;1.48;;;;;;;7.24;89.07;101633.56;6248393;28;20050;-71
2022/04/20 07:38:27;;;;;;;3.15;1.70;;;;;;;7.36;88.31;101635.03;6247139;28;20042;-71
2022/04/20 07:41:30;;;;;;;6.63;1.60;;;;;;;7.63;88.04;101621.22;6245739;28;20120;-72
2022/04/20 07:44:32;;;;;;;3.90;1.48;;;;;;;7.91;84.85;101624.84;6246352;28;20052;-72
2022/04/20 07:47:33;;;;;;;2.40;1.38;;;;;;;8.07;83.49;101628.72;6248150;28;20056;-71
2022/04/20 07:50:35;;;;;;;3.95;1.67;;;;;;;8.27;83.38;101634.25;6248099;28;20640;-72
2022/04/20 07:53:36;;;;;;;2.58;1.33;;;;;;;8.45;79.99;101625.03;6246488;28;20455;-72
2022/04/20 07:56:39;;;;;;;5.68;2.42;;;;;;;8.60;78.75;101629.78;6246141;28;20053;-72
2022/04/20 07:59:41;;;;;;;5.47;2.63;;;;;;;8.75;79.39;101627.56;6249780;28;20760;-72
2022/04/20 08:02:43;;;;;;;3.10;1.60;;;;;;;8.87;77.96;101630.69;6250137;28;20072;-72
2022/04/20 08:05:51;;;;;;;12.70;5.00;;;;;;;9.00;76.44;101633.75;6249240;28;20398;-72
2022/04/20 08:08:52;;;;;;;13.80;3.40;;;;;;;9.05;74.81;101636.22;6246457;28;20053;-72
2022/04/20 08:11:55;;;;;;;12.52;3.55;;;;;;;9.03;76.26;101638.88;6249339;28;20053;-72
2022/04/20 08:14:56;;;;;;;18.17;4.30;;;;;;;9.18;76.37;101645.41;6250596;28;20041;-72
2022/04/20 08:17:58;;;;;;;2.53;1.77;;;;;;;9.34;74.86;101637.88;6250164;28;20516;-72
2022/04/20 08:20:59;;;;;;;3.22;1.75;;;;;;;9.36;74.63;101638.69;6249593;28;20045;-70
2022/04/20 08:24:00;;;;;;;8.38;3.05;;;;;;;9.39;72.85;101639.44;6250053;28;20053;-69
2022/04/20 08:27:03;;;;;;;13.82;2.65;;;;;;;9.52;73.32;101644.25;6250062;28;20060;-70
2022/04/20 08:30:07;;;;;;;8.25;3.17;;;;;;;9.61;72.01;101650.03;6247963;28;20050;-70
2022/04/20 08:33:08;;;;;;;5.53;2.22;;;;;;;9.64;71.38;101647.31;6248778;28;20485;-70
2022/04/20 08:36:11;;;;;;;7.03;2.90;;;;;;;9.80;71.63;101637.13;6248477;28;20061;-69
2022/04/20 08:39:13;;;;;;;8.27;3.85;;;;;;;9.90;74.57;101633.28;6249966;28;20087;-70
2022/04/20 08:42:18;;;;;;;9.27;3.75;;;;;;;9.93;72.44;101631.44;6246571;28;20061;-70
2022/04/20 08:45:20;;;;;;;4.10;1.70;;;;;;;10.04;71.32;101642.44;6245008;28;20048;-69
2022/04/20 08:48:22;;;;;;;7.72;2.95;;;;;;;10.01;69.48;101640.75;6248179;28;20053;-70
2022/04/20 08:51:23;;;;;;;15.63;5.15;;;;;;;10.05;71.18;101642.34;6244287;28;20049;-70
2022/04/20 08:54:25;;;;;;;3.80;1.58;;;;;;;10.22;73.01;101640.84;6246100;28;20052;-70
2022/04/20 08:57:29;;;;;;;8.77;2.30;;;;;;;10.32;71.93;101639.66;6248422;28;20053;-70
2022/04/20 09:00:31;;;;;;;12.70;3.63;;;;;;;10.49;70.62;101629.34;6248592;28;20052;-70
2022/04/20 09:03:34;;;;;;;5.40;2.22;;;;;;;10.56;67.38;101638.69;6248070;28;20061;-70
2022/04/20 09:06:35;;;;;;;9.43;2.58;;;;;;;10.63;67.52;101640.19;6247213;28;20060;-70
2022/04/20 09:09:37;;;;;;;2.45;1.80;;;;;;;10.68;67.35;101637.38;6248107;28;20147;-70
2022/04/20 09:12:43;;;;;;;5.45;2.50;;;;;;;10.77;66.58;101633.53;6239929;28;20091;-70
2022/04/20 09:15:44;;;;;;;6.13;3.20;;;;;;;10.83;66.62;101630.66;6246241;28;20049;-70
2022/04/20 09:18:50;;;;;;;3.28;1.60;;;;;;;10.99;67.93;101626.50;6246815;28;20049;-70
2022/04/20 09:21:52;;;;;;;3.47;1.75;;;;;;;11.12;67.08;101632.94;6247375;28;20057;-70
2022/04/20 09:25:06;;;;;;;2.75;1.70;;;;;;;11.25;65.63;101628.00;6248504;28;20048;-70
2022/04/20 09:28:09;;;;;;;2.83;1.67;;;;;;;11.24;67.92;101626.31;6248246;28;20521;-70
2022/04/20 09:31:13;;;;;;;3.25;1.73;;;;;;;11.26;68.84;101624.47;6247564;28;20417;-70
2022/04/20 09:34:34;;;;;;;5.55;1.60;;;;;;;11.22;67.21;101625.53;6247555;28;20045;-70
2022/04/20 09:37:37;;;;;;;2.80;1.67;;;;;;;11.17;67.47;101617.84;6244512;28;20497;-70
2022/04/20 09:40:39;;;;;;;5.82;2.53;;;;;;;11.21;70.77;101615.06;6246952;28;20497;-70
2022/04/20 09:43:42;;;;;;;3.88;2.05;;;;;;;11.09;67.97;101605.91;6248085;28;20065;-69
2022/04/20 09:50:10;;;;;;;2.92;1.83;;;;;;;11.10;69.00;101603.22;6247448;28;20504;-70
2022/04/20 09:53:14;;;;;;;4.78;2.05;;;;;;;11.15;68.71;101597.75;6246001;28;20389;-70
2022/04/20 09:56:17;;;;;;;4.13;2.03;;;;;;;11.23;69.97;101597.44;6247726;28;20056;-70
2022/04/20 09:59:19;;;;;;;5.57;1.75;;;;;;;11.29;69.47;101603.28;6247041;28;20045;-69
2022/04/20 10:02:21;;;;;;;2.45;1.80;;;;;;;11.39;67.55;101593.22;6247057;28;20144;-69
2022/04/20 10:05:23;;;;;;;4.18;1.60;;;;;;;11.41;67.69;101599.28;6245609;28;20060;-70
2022/04/20 10:08:25;;;;;;;2.35;1.45;;;;;;;11.54;69.69;101596.97;6246864;28;20050;-69
2022/04/20 10:11:28;;;;;;;1.75;1.10;;;;;;;11.76;67.89;101594.22;6246413;28;20045;-69
2022/04/20 10:17:56;;;;;;;2.85;1.65;;;;;;;11.99;67.39;101586.22;6247264;28;20520;-70
2022/04/20 10:20:59;;;;;;;2.63;1.60;;;;;;;12.16;65.88;101588.03;6239680;28;20046;-70
2022/04/20 10:24:05;;;;;;;2.75;1.58;;;;;;;12.31;64.54;101583.81;6247178;28;20056;-70
2022/04/20 10:27:14;;;;;;;2.83;1.33;;;;;;;12.51;62.75;101575.84;6246559;28;20187;-70
2022/04/20 10:30:22;;;;;;;1.50;0.93;;;;;;;12.64;59.40;101576.97;6246586;28;20053;-69
2022/04/20 10:33:24;;;;;;;1.40;1.20;;;;;;;12.72;57.75;101568.69;6246036;28;20045;-70
2022/04/20 10:36:29;;;;;;;2.55;1.10;;;;;;;12.92;60.10;101565.03;6244104;28;20053;-70
2022/04/20 10:39:36;;;;;;;2.47;1.63;;;;;;;13.07;59.66;101563.41;6245657;28;20045;-70
2022/04/20 10:42:38;;;;;;;2.05;1.23;;;;;;;13.20;57.11;101559.22;6245904;28;20512;-70
2022/04/20 10:46:14;;;;;;;2.47;1.48;;;;;;;13.55;57.57;101551.28;6232426;28;20156;-70
2022/04/20 10:49:17;;;;;;;1.88;1.15;;;;;;;13.66;55.32;101552.41;6245172;28;20041;-70
2022/04/20 10:52:25;;;;;;;2.15;1.17;;;;;;;13.96;53.98;101543.78;6244065;28;20060;-71
2022/04/20 10:55:51;;;;;;;2.97;1.38;;;;;;;14.07;56.18;101540.53;6245766;28;20038;-70
2022/04/20 10:59:09;;;;;;;2.15;1.48;;;;;;;14.20;52.95;101538.91;6240038;28;20097;-70
2022/04/20 11:02:15;;;;;;;1.90;1.20;;;;;;;14.19;53.90;101532.78;6243842;28;20057;-71
2022/04/20 11:05:20;;;;;;;2.67;1.58;;;;;;;14.44;53.64;101526.09;6246286;28;20056;-70
2022/04/20 11:08:22;;;;;;;2.08;1.10;;;;;;;14.52;51.40;101521.25;6246335;28;20053;-70
2022/04/20 11:21:38;;;;;;;4.00;1.42;;;;;;;15.12;49.04;101508.00;6240063;28;20053;-71
2022/04/20 11:24:39;;;;;;;2.05;1.13;;;;;;;15.50;47.75;101512.78;6246244;28;20049;-71
2022/04/20 11:27:41;;;;;;;1.83;1.17;;;;;;;15.64;48.22;101496.06;6238599;28;20069;-71
2022/04/20 11:30:44;;;;;;;2.55;1.30;;;;;;;16.02;47.92;101493.63;6234386;28;20057;-70
2022/04/20 11:33:47;;;;;;;1.55;0.95;;;;;;;16.79;44.57;101489.47;6245438;28;20516;-75
2022/04/20 11:36:51;;;;;;;2.60;1.17;;;;;;;17.82;41.87;101485.00;6245957;28;20050;-76
2022/04/20 11:39:56;;;;;;;2.15;1.10;;;;;;;18.09;42.45;101479.47;6245771;28;20140;-70
2022/04/20 11:43:04;;;;;;;1.30;1.00;;;;;;;18.45;41.54;101470.59;6245834;28;20057;-71
2022/04/20 11:46:07;;;;;;;1.03;0.80;;;;;;;18.88;40.78;101472.66;6245724;28;20055;-71
2022/04/20 11:49:10;;;;;;;1.90;1.20;;;;;;;19.45;38.41;101467.28;6246231;28;20532;-71
2022/04/20 11:52:14;;;;;;;0.77;0.77;;;;;;;19.51;40.53;101464.13;6244798;28;20046;-72
2022/04/20 11:55:17;;;;;;;2.03;1.20;;;;;;;19.46;39.46;101460.13;6244324;28;20049;-72
2022/04/20 11:58:18;;;;;;;3.25;1.30;;;;;;;20.17;36.32;101445.50;6242524;28;20046;-72
2022/04/20 12:01:23;;;;;;;1.00;0.85;;;;;;;20.22;35.91;101451.28;6244779;28;20048;-72
2022/04/20 12:04:27;;;;;;;1.15;0.90;;;;;;;19.50;36.26;101454.44;6245630;28;20056;-71
2022/04/20 12:07:32;;;;;;;1.45;0.98;;;;;;;20.03;37.45;101448.44;6250108;28;20409;-71
2022/04/20 12:10:33;;;;;;;0.68;0.52;;;;;;;20.48;36.68;101456.28;6249268;28;20053;-72
2022/04/20 12:13:35;;;;;;;0.73;0.55;;;;;;;20.95;36.65;101454.09;6249499;28;20049;-71
2022/04/20 12:16:39;;;;;;;1.33;0.82;;;;;;;20.44;35.28;101441.50;6248513;28;20060;-71
2022/04/20 12:19:42;;;;;;;2.05;1.00;;;;;;;20.35;35.10;101448.44;6245287;28;20460;-71
2022/04/20 12:22:44;;;;;;;1.40;0.70;;;;;;;20.04;37.30;101447.47;6249963;28;20053;-72
2022/04/20 12:25:51;;;;;;;1.30;0.85;;;;;;;20.42;34.87;101435.41;6246249;28;20042;-71
2022/04/20 12:28:58;;;;;;;1.83;0.85;;;;;;;20.49;36.05;101429.47;6246725;28;20057;-72
2022/04/20 12:32:00;;;;;;;0.77;0.60;;;;;;;19.92;36.59;101433.31;6246512;28;20052;-72
2022/04/20 12:35:04;;;;;;;1.00;0.75;;;;;;;18.86;37.82;101430.19;6246167;28;20041;-72
2022/04/20 12:38:07;;;;;;;2.45;0.70;;;;;;;18.99;38.97;101427.44;6245945;28;20420;-71
2022/04/20 12:41:41;;;;;;;1.55;0.65;;;;;;;19.91;35.79;101420.09;6247371;28;20053;-71
2022/04/20 12:44:50;;;;;;;0.63;0.50;;;;;;;20.15;33.50;101411.88;6249515;28;20436;-71
2022/04/20 12:48:03;;;;;;;0.70;0.70;;;;;;;20.61;32.78;101405.38;6249661;28;20056;-72
2022/04/20 12:51:05;;;;;;;2.03;0.70;;;;;;;20.44;30.09;101401.44;6248935;28;20527;-71
2022/04/20 12:54:06;;;;;;;3.72;1.10;;;;;;;19.06;33.28;101401.13;6249531;28;20128;-71
2022/04/20 13:04:03;;;;;;;1.13;0.55;;;;;;;20.99;31.23;101378.88;6249390;28;20413;-71
2022/04/20 13:07:04;;;;;;;;;;;;;;;21.82;29.35;101384.06;6249630;28;20057;-71
2022/04/20 13:10:06;;;;;;;2.20;0.50;;;;;;;22.03;29.28;101387.47;6249084;28;19928;-71
2022/04/20 13:13:10;;;;;;;1.98;0.82;;;;;;;21.66;31.05;101387.25;6248695;28;20056;-71
2022/04/20 13:16:11;;;;;;;1.23;0.90;;;;;;;21.66;29.67;101372.06;6248378;28;20046;-72
2022/04/20 13:19:12;;;;;;;0.88;0.40;;;;;;;21.49;28.68;101378.09;6248872;28;20409;-72
2022/04/20 13:22:14;;;;;;;1.02;0.50;;;;;;;21.35;29.52;101360.63;6247438;28;20064;-71
2022/04/20 13:28:36;;;;;;;;;;;;;;;22.04;30.18;101365.91;6242779;28;20451;-72
2022/04/20 13:31:37;;;;;;;0.60;0.52;;;;;;;21.81;28.93;101364.50;6247945;28;19932;-71
2022/04/20 13:34:38;;;;;;;0.65;0.60;;;;;;;21.50;31.13;101356.56;6247947;28;20412;-71
2022/04/20 13:37:40;;;;;;;0.80;0.45;;;;;;;22.14;28.05;101367.75;6248268;28;20060;-72
2022/04/20 13:40:42;;;;;;;1.73;0.77;;;;;;;22.13;27.85;101358.03;6247515;28;20060;-72
2022/04/20 13:43:45;;;;;;;4.13;0.65;;;;;;;21.44;30.24;101359.78;6246913;28;20111;-71
2022/04/20 13:46:46;;;;;;;2.85;0.77;;;;;;;20.82;30.45;101354.59;6248171;28;20501;-71
2022/04/20 13:49:48;;;;;;;2.15;0.85;;;;;;;20.63;31.62;101353.53;6247301;28;20059;-70
2022/04/20 13:52:50;;;;;;;1.33;0.63;;;;;;;20.14;29.03;101341.66;6247344;28;20052;-71
2022/04/20 13:55:51;;;;;;;1.08;0.57;;;;;;;19.30;32.23;101347.69;6247983;28;20050;-70
2022/04/20 13:58:54;;;;;;;1.45;0.68;;;;;;;18.92;32.16;101344.47;6248327;28;20053;-70
2022/04/20 14:01:55;;;;;;;1.55;0.65;;;;;;;18.80;32.56;101358.75;6246201;28;20053;-71
2022/04/20 14:04:56;;;;;;;2.97;0.60;;;;;;;19.07;30.08;101349.53;6247638;28;20049;-71
2022/04/20 14:07:58;;;;;;;1.13;0.50;;;;;;;19.25;31.33;101348.06;6246875;28;20512;-71
2022/04/20 14:10:59;;;;;;;0.73;0.65;;;;;;;19.06;31.89;101343.38;6246775;28;20052;-71
2022/04/20 14:14:02;;;;;;;0.80;0.60;;;;;;;18.35;32.17;101347.13;6247359;28;20052;-71
2022/04/20 14:17:04;;;;;;;1.95;0.80;;;;;;;18.33;33.57;101347.25;6247650;28;20055;-70
2022/04/20 14:20:09;;;;;;;5.05;0.70;;;;;;;18.32;32.56;101339.41;6247161;28;20060;-71
2022/04/20 14:23:10;;;;;;;1.00;0.50;;;;;;;18.56;34.54;101348.16;6246894;28;20049;-70
2022/04/20 14:32:50;;;;;;;0.90;0.82;;;;;;;18.94;31.71;101345.22;6245532;28;20416;-70
2022/04/20 14:35:52;;;;;;;1.58;0.80;;;;;;;18.50;31.77;101353.97;6246891;28;20049;-73
2022/04/20 14:38:54;;;;;;;1.00;0.70;;;;;;;18.06;33.65;101344.88;6246945;28;20501;-72
2022/04/20 14:41:56;;;;;;;0.95;0.60;;;;;;;18.22;35.08;101349.91;6246440;28;20052;-73
2022/04/20 14:45:00;;;;;;;1.77;0.73;;;;;;;18.85;34.43;101343.28;6246781;28;20045;-73
2022/04/20 14:48:01;;;;;;;0.80;0.55;;;;;;;20.04;31.55;101348.75;6247027;28;20516;-73
2022/04/20 14:51:03;;;;;;;0.88;0.68;;;;;;;20.66;29.96;101344.38;6245960;28;20052;-73
2022/04/20 14:54:04;;;;;;;1.08;0.50;;;;;;;23.00;27.21;101347.13;6259562;28;20519;-73
2022/04/20 14:57:06;;;;;;;2.30;0.60;;;;;;;24.99;24.23;101352.13;6243801;28;20056;-73
2022/04/20 15:00:11;;;;;;;1.17;0.55;;;;;;;24.41;24.75;101344.72;6245840;28;20045;-73
2022/04/20 15:03:12;;;;;;;1.52;0.57;;;;;;;23.46;25.87;101338.13;6246731;28;20053;-73